sensor_id;sensor_type;location;lat;lon;timestamp;P1;durP1;ratioP1;P2;durP2;ratioP2
19671;SDS011;9983;51.114;13.788;2023-08-21T00:01:47;6.78;;;6.28;;
19671;SDS011;9983;51.114;13.788;2023-08-21T00:06:47;7.75;;;6.53;;
19671;SDS011;9983;51.114;13.788;2023-08-21T00:11:48;7.38;;;6.55;;
19671;SDS011;9983;51.114;13.788;2023-08-21T00:16:48;7.45;;;6.72;;
19671;SDS011;9983;51.114;13.788;2023-08-21T00:21:48;8.07;;;7.28;;
19671;SDS011;9983;51.114;13.788;2023-08-21T00:26:48;8.35;;;7.45;;
19671;SDS011;9983;51.114;13.788;2023-08-21T00:31:49;7.72;;;7.03;;
19671;SDS011;9983;51.114;13.788;2023-08-21T00:36:49;8.60;;;6.60;;
19671;SDS011;9983;51.114;13.788;2023-08-21T00:41:49;7.97;;;7.17;;
19671;SDS011;9983;51.114;13.788;2023-08-21T00:46:50;8.10;;;7.30;;
19671;SDS011;9983;51.114;13.788;2023-08-21T00:51:50;8.40;;;7.53;;
19671;SDS011;9983;51.114;13.788;2023-08-21T00:56:51;9.10;;;8.13;;
19671;SDS011;9983;51.114;13.788;2023-08-21T01:01:52;8.23;;;7.53;;
19671;SDS011;9983;51.114;13.788;2023-08-21T01:06:52;7.97;;;7.18;;
19671;SDS011;9983;51.114;13.788;2023-08-21T01:17:18;7.97;;;7.18;;
19671;SDS011;9983;51.114;13.788;2023-08-21T01:22:19;8.13;;;7.32;;
19671;SDS011;9983;51.114;13.788;2023-08-21T01:27:20;7.78;;;7.07;;
19671;SDS011;9983;51.114;13.788;2023-08-21T01:32:33;7.30;;;6.60;;
19671;SDS011;9983;51.114;13.788;2023-08-21T01:37:39;6.90;;;6.30;;
19671;SDS011;9983;51.114;13.788;2023-08-21T01:42:40;8.00;;;7.20;;
19671;SDS011;9983;51.114;13.788;2023-08-21T01:47:40;7.85;;;7.15;;
19671;SDS011;9983;51.114;13.788;2023-08-21T01:52:40;7.03;;;6.43;;
19671;SDS011;9983;51.114;13.788;2023-08-21T01:57:41;8.88;;;8.07;;
19671;SDS011;9983;51.114;13.788;2023-08-21T02:02:42;11.95;;;7.47;;
19671;SDS011;9983;51.114;13.788;2023-08-21T02:07:42;8.85;;;7.75;;
19671;SDS011;9983;51.114;13.788;2023-08-21T02:12:42;8.05;;;7.32;;
19671;SDS011;9983;51.114;13.788;2023-08-21T02:17:43;9.07;;;7.33;;
19671;SDS011;9983;51.114;13.788;2023-08-21T02:22:43;8.53;;;7.60;;
19671;SDS011;9983;51.114;13.788;2023-08-21T02:27:43;7.70;;;6.90;;
19671;SDS011;9983;51.114;13.788;2023-08-21T02:32:44;11.70;;;7.67;;
19671;SDS011;9983;51.114;13.788;2023-08-21T02:37:44;7.03;;;6.43;;
19671;SDS011;9983;51.114;13.788;2023-08-21T02:42:44;7.25;;;6.65;;
19671;SDS011;9983;51.114;13.788;2023-08-21T02:47:44;7.53;;;6.85;;
19671;SDS011;9983;51.114;13.788;2023-08-21T02:52:45;7.82;;;6.90;;
19671;SDS011;9983;51.114;13.788;2023-08-21T02:57:46;7.50;;;6.80;;
19671;SDS011;9983;51.114;13.788;2023-08-21T03:02:46;7.93;;;7.13;;
19671;SDS011;9983;51.114;13.788;2023-08-21T03:07:46;7.57;;;6.60;;
19671;SDS011;9983;51.114;13.788;2023-08-21T03:12:47;8.15;;;7.35;;
19671;SDS011;9983;51.114;13.788;2023-08-21T03:17:47;10.63;;;7.53;;
19671;SDS011;9983;51.114;13.788;2023-08-21T03:22:47;9.43;;;7.30;;
19671;SDS011;9983;51.114;13.788;2023-08-21T03:27:47;8.25;;;7.45;;
19671;SDS011;9983;51.114;13.788;2023-08-21T03:32:49;7.88;;;7.15;;
19671;SDS011;9983;51.114;13.788;2023-08-21T03:37:49;7.38;;;6.68;;
19671;SDS011;9983;51.114;13.788;2023-08-21T03:42:49;10.40;;;7.18;;
19671;SDS011;9983;51.114;13.788;2023-08-21T03:47:50;8.30;;;7.50;;
19671;SDS011;9983;51.114;13.788;2023-08-21T03:52:50;7.60;;;7.00;;
19671;SDS011;9983;51.114;13.788;2023-08-21T03:57:50;7.18;;;6.40;;
19671;SDS011;9983;51.114;13.788;2023-08-21T04:02:50;9.45;;;7.68;;
19671;SDS011;9983;51.114;13.788;2023-08-21T04:07:51;9.80;;;6.67;;
19671;SDS011;9983;51.114;13.788;2023-08-21T04:12:51;7.78;;;6.97;;
19671;SDS011;9983;51.114;13.788;2023-08-21T04:17:51;7.97;;;6.88;;
19671;SDS011;9983;51.114;13.788;2023-08-21T04:22:52;11.82;;;7.18;;
19671;SDS011;9983;51.114;13.788;2023-08-21T04:27:52;6.97;;;6.32;;
19671;SDS011;9983;51.114;13.788;2023-08-21T04:32:52;7.38;;;6.68;;
19671;SDS011;9983;51.114;13.788;2023-08-21T04:37:53;7.18;;;6.57;;
19671;SDS011;9983;51.114;13.788;2023-08-21T04:42:54;7.15;;;6.47;;
19671;SDS011;9983;51.114;13.788;2023-08-21T04:47:54;7.70;;;6.75;;
19671;SDS011;9983;51.114;13.788;2023-08-21T04:52:54;7.33;;;6.30;;
19671;SDS011;9983;51.114;13.788;2023-08-21T04:57:54;9.85;;;7.20;;
19671;SDS011;9983;51.114;13.788;2023-08-21T05:02:55;7.13;;;6.15;;
19671;SDS011;9983;51.114;13.788;2023-08-21T05:07:55;7.93;;;5.97;;
19671;SDS011;9983;51.114;13.788;2023-08-21T05:12:56;7.15;;;6.47;;
19671;SDS011;9983;51.114;13.788;2023-08-21T05:17:57;6.78;;;6.07;;
19671;SDS011;9983;51.114;13.788;2023-08-21T05:22:57;6.90;;;6.20;;
19671;SDS011;9983;51.114;13.788;2023-08-21T05:27:57;7.05;;;6.05;;
19671;SDS011;9983;51.114;13.788;2023-08-21T05:32:58;6.80;;;6.13;;
19671;SDS011;9983;51.114;13.788;2023-08-21T05:37:58;6.80;;;5.63;;
19671;SDS011;9983;51.114;13.788;2023-08-21T05:42:58;8.55;;;5.47;;
19671;SDS011;9983;51.114;13.788;2023-08-21T05:47:59;6.77;;;6.27;;
19671;SDS011;9983;51.114;13.788;2023-08-21T05:52:59;8.93;;;6.93;;
19671;SDS011;9983;51.114;13.788;2023-08-21T05:58:01;8.05;;;7.25;;
19671;SDS011;9983;51.114;13.788;2023-08-21T06:03:02;8.80;;;7.90;;
19671;SDS011;9983;51.114;13.788;2023-08-21T06:08:02;8.85;;;7.65;;
19671;SDS011;9983;51.114;13.788;2023-08-21T06:13:03;9.65;;;7.15;;
19671;SDS011;9983;51.114;13.788;2023-08-21T06:18:03;11.23;;;10.10;;
19671;SDS011;9983;51.114;13.788;2023-08-21T06:23:04;11.88;;;10.77;;
19671;SDS011;9983;51.114;13.788;2023-08-21T06:28:04;11.77;;;10.68;;
19671;SDS011;9983;51.114;13.788;2023-08-21T06:33:05;10.05;;;9.07;;
19671;SDS011;9983;51.114;13.788;2023-08-21T06:38:05;12.35;;;11.15;;
19671;SDS011;9983;51.114;13.788;2023-08-21T06:43:05;10.57;;;9.30;;
19671;SDS011;9983;51.114;13.788;2023-08-21T06:48:06;10.98;;;9.93;;
19671;SDS011;9983;51.114;13.788;2023-08-21T06:53:06;10.87;;;9.77;;
19671;SDS011;9983;51.114;13.788;2023-08-21T06:58:06;10.52;;;9.55;;
19671;SDS011;9983;51.114;13.788;2023-08-21T07:03:07;10.27;;;9.38;;
19671;SDS011;9983;51.114;13.788;2023-08-21T07:08:07;10.60;;;9.77;;
19671;SDS011;9983;51.114;13.788;2023-08-21T07:13:07;10.55;;;9.55;;
19671;SDS011;9983;51.114;13.788;2023-08-21T07:18:08;10.25;;;9.35;;
19671;SDS011;9983;51.114;13.788;2023-08-21T07:23:08;10.00;;;9.02;;
19671;SDS011;9983;51.114;13.788;2023-08-21T07:28:08;10.70;;;9.63;;
19671;SDS011;9983;51.114;13.788;2023-08-21T07:33:10;11.90;;;10.02;;
19671;SDS011;9983;51.114;13.788;2023-08-21T07:38:11;11.57;;;10.10;;
19671;SDS011;9983;51.114;13.788;2023-08-21T07:43:11;10.15;;;9.25;;
19671;SDS011;9983;51.114;13.788;2023-08-21T07:48:11;11.07;;;9.82;;
19671;SDS011;9983;51.114;13.788;2023-08-21T07:53:11;10.45;;;9.48;;
19671;SDS011;9983;51.114;13.788;2023-08-21T07:58:12;9.43;;;8.53;;
19671;SDS011;9983;51.114;13.788;2023-08-21T08:03:12;10.00;;;9.05;;
19671;SDS011;9983;51.114;13.788;2023-08-21T08:08:16;9.13;;;8.13;;
19671;SDS011;9983;51.114;13.788;2023-08-21T08:13:16;9.60;;;8.68;;
19671;SDS011;9983;51.114;13.788;2023-08-21T08:18:17;10.10;;;9.10;;
19671;SDS011;9983;51.114;13.788;2023-08-21T08:23:17;10.13;;;8.95;;
19671;SDS011;9983;51.114;13.788;2023-08-21T08:28:17;10.63;;;9.50;;
19671;SDS011;9983;51.114;13.788;2023-08-21T08:33:18;10.77;;;9.87;;
19671;SDS011;9983;51.114;13.788;2023-08-21T08:38:18;10.77;;;9.87;;
19671;SDS011;9983;51.114;13.788;2023-08-21T08:43:19;11.85;;;10.75;;
19671;SDS011;9983;51.114;13.788;2023-08-21T08:48:20;10.18;;;9.38;;
19671;SDS011;9983;51.114;13.788;2023-08-21T08:53:20;10.27;;;9.45;;
19671;SDS011;9983;51.114;13.788;2023-08-21T08:58:22;10.10;;;9.20;;
19671;SDS011;9983;51.114;13.788;2023-08-21T09:03:22;9.07;;;8.23;;
19671;SDS011;9983;51.114;13.788;2023-08-21T09:08:22;8.90;;;8.00;;
19671;SDS011;9983;51.114;13.788;2023-08-21T09:13:22;7.93;;;7.23;;
19671;SDS011;9983;51.114;13.788;2023-08-21T09:18:23;8.68;;;7.88;;
19671;SDS011;9983;51.114;13.788;2023-08-21T09:23:23;7.88;;;7.18;;
19671;SDS011;9983;51.114;13.788;2023-08-21T09:28:24;8.00;;;7.30;;
19671;SDS011;9983;51.114;13.788;2023-08-21T09:33:25;7.15;;;6.55;;
19671;SDS011;9983;51.114;13.788;2023-08-21T09:38:25;8.10;;;7.40;;
19671;SDS011;9983;51.114;13.788;2023-08-21T09:43:26;7.50;;;6.78;;
19671;SDS011;9983;51.114;13.788;2023-08-21T09:48:27;8.13;;;6.65;;
19671;SDS011;9983;51.114;13.788;2023-08-21T09:53:27;7.10;;;6.40;;
19671;SDS011;9983;51.114;13.788;2023-08-21T09:58:28;7.20;;;6.40;;
19671;SDS011;9983;51.114;13.788;2023-08-21T10:03:28;6.57;;;5.55;;
19671;SDS011;9983;51.114;13.788;2023-08-21T10:08:29;6.15;;;5.55;;
19671;SDS011;9983;51.114;13.788;2023-08-21T10:13:32;6.05;;;5.55;;
19671;SDS011;9983;51.114;13.788;2023-08-21T10:18:34;5.68;;;5.20;;
19671;SDS011;9983;51.114;13.788;2023-08-21T10:23:36;6.95;;;5.45;;
19671;SDS011;9983;51.114;13.788;2023-08-21T10:28:50;5.78;;;5.28;;
19671;SDS011;9983;51.114;13.788;2023-08-21T10:33:52;6.32;;;5.53;;
19671;SDS011;9983;51.114;13.788;2023-08-21T10:38:58;5.88;;;5.38;;
19671;SDS011;9983;51.114;13.788;2023-08-21T10:43:58;5.47;;;4.97;;
19671;SDS011;9983;51.114;13.788;2023-08-21T10:49:00;6.72;;;5.50;;
19671;SDS011;9983;51.114;13.788;2023-08-21T10:54:10;5.82;;;5.28;;
19671;SDS011;9983;51.114;13.788;2023-08-21T10:59:11;6.10;;;5.50;;
19671;SDS011;9983;51.114;13.788;2023-08-21T11:04:11;6.13;;;5.63;;
19671;SDS011;9983;51.114;13.788;2023-08-21T11:09:12;6.20;;;5.20;;
19671;SDS011;9983;51.114;13.788;2023-08-21T11:14:13;5.70;;;5.13;;
19671;SDS011;9983;51.114;13.788;2023-08-21T11:19:13;5.80;;;5.15;;
19671;SDS011;9983;51.114;13.788;2023-08-21T11:24:13;7.75;;;5.85;;
19671;SDS011;9983;51.114;13.788;2023-08-21T11:29:14;6.90;;;6.18;;
19671;SDS011;9983;51.114;13.788;2023-08-21T11:34:21;6.43;;;5.93;;
19671;SDS011;9983;51.114;13.788;2023-08-21T11:39:21;7.75;;;6.95;;
19671;SDS011;9983;51.114;13.788;2023-08-21T11:44:22;7.53;;;6.82;;
19671;SDS011;9983;51.114;13.788;2023-08-21T11:49:22;7.68;;;6.72;;
19671;SDS011;9983;51.114;13.788;2023-08-21T11:54:24;6.90;;;6.30;;
19671;SDS011;9983;51.114;13.788;2023-08-21T11:59:24;6.93;;;6.33;;
19671;SDS011;9983;51.114;13.788;2023-08-21T12:04:24;6.63;;;6.15;;
19671;SDS011;9983;51.114;13.788;2023-08-21T12:09:25;6.70;;;5.90;;
19671;SDS011;9983;51.114;13.788;2023-08-21T12:14:27;6.32;;;5.78;;
19671;SDS011;9983;51.114;13.788;2023-08-21T12:19:28;6.25;;;5.78;;
19671;SDS011;9983;51.114;13.788;2023-08-21T12:24:29;6.95;;;6.40;;
19671;SDS011;9983;51.114;13.788;2023-08-21T12:29:29;7.35;;;6.60;;
19671;SDS011;9983;51.114;13.788;2023-08-21T12:34:30;6.18;;;5.68;;
19671;SDS011;9983;51.114;13.788;2023-08-21T12:39:30;5.83;;;5.33;;
19671;SDS011;9983;51.114;13.788;2023-08-21T12:44:30;6.50;;;6.00;;
19671;SDS011;9983;51.114;13.788;2023-08-21T12:49:31;6.03;;;5.55;;
19671;SDS011;9983;51.114;13.788;2023-08-21T12:54:31;6.10;;;5.60;;
19671;SDS011;9983;51.114;13.788;2023-08-21T12:59:31;6.03;;;5.30;;
19671;SDS011;9983;51.114;13.788;2023-08-21T13:04:31;5.53;;;5.05;;
19671;SDS011;9983;51.114;13.788;2023-08-21T13:09:32;5.67;;;5.27;;
19671;SDS011;9983;51.114;13.788;2023-08-21T13:14:33;5.80;;;5.40;;
19671;SDS011;9983;51.114;13.788;2023-08-21T13:19:34;5.55;;;5.15;;
19671;SDS011;9983;51.114;13.788;2023-08-21T13:24:34;5.60;;;5.20;;
19671;SDS011;9983;51.114;13.788;2023-08-21T13:29:34;5.70;;;5.28;;
19671;SDS011;9983;51.114;13.788;2023-08-21T13:34:35;5.43;;;5.03;;
19671;SDS011;9983;51.114;13.788;2023-08-21T13:39:35;5.50;;;5.10;;
19671;SDS011;9983;51.114;13.788;2023-08-21T13:44:35;6.00;;;5.50;;
19671;SDS011;9983;51.114;13.788;2023-08-21T13:49:35;6.00;;;5.40;;
19671;SDS011;9983;51.114;13.788;2023-08-21T13:54:36;5.30;;;4.95;;
19671;SDS011;9983;51.114;13.788;2023-08-21T13:59:36;6.18;;;5.40;;
19671;SDS011;9983;51.114;13.788;2023-08-21T14:04:36;6.00;;;5.50;;
19671;SDS011;9983;51.114;13.788;2023-08-21T14:09:37;5.50;;;5.10;;
19671;SDS011;9983;51.114;13.788;2023-08-21T14:14:38;5.43;;;5.10;;
19671;SDS011;9983;51.114;13.788;2023-08-21T14:19:38;5.60;;;5.20;;
19671;SDS011;9983;51.114;13.788;2023-08-21T14:24:38;5.93;;;5.50;;
19671;SDS011;9983;51.114;13.788;2023-08-21T14:29:39;5.93;;;5.45;;
19671;SDS011;9983;51.114;13.788;2023-08-21T14:34:39;5.65;;;5.15;;
19671;SDS011;9983;51.114;13.788;2023-08-21T14:39:39;5.43;;;4.93;;
19671;SDS011;9983;51.114;13.788;2023-08-21T14:44:39;5.50;;;4.93;;
19671;SDS011;9983;51.114;13.788;2023-08-21T14:49:40;5.00;;;4.60;;
19671;SDS011;9983;51.114;13.788;2023-08-21T14:54:41;5.55;;;5.03;;
19671;SDS011;9983;51.114;13.788;2023-08-21T14:59:41;5.80;;;5.30;;
19671;SDS011;9983;51.114;13.788;2023-08-21T15:04:41;6.40;;;5.80;;
19671;SDS011;9983;51.114;13.788;2023-08-21T15:09:43;6.43;;;4.63;;
19671;SDS011;9983;51.114;13.788;2023-08-21T15:14:44;4.90;;;4.60;;
19671;SDS011;9983;51.114;13.788;2023-08-21T15:19:46;4.80;;;4.50;;
19671;SDS011;9983;51.114;13.788;2023-08-21T15:24:48;5.13;;;4.72;;
19671;SDS011;9983;51.114;13.788;2023-08-21T15:29:48;5.00;;;4.50;;
19671;SDS011;9983;51.114;13.788;2023-08-21T15:34:48;5.00;;;4.50;;
19671;SDS011;9983;51.114;13.788;2023-08-21T15:39:48;6.20;;;5.70;;
19671;SDS011;9983;51.114;13.788;2023-08-21T15:44:49;7.53;;;5.70;;
19671;SDS011;9983;51.114;13.788;2023-08-21T15:49:49;5.43;;;4.97;;
19671;SDS011;9983;51.114;13.788;2023-08-21T15:54:49;7.00;;;5.78;;
19671;SDS011;9983;51.114;13.788;2023-08-21T15:59:52;4.60;;;4.28;;
19671;SDS011;9983;51.114;13.788;2023-08-21T16:04:52;5.60;;;5.10;;
19671;SDS011;9983;51.114;13.788;2023-08-21T16:09:53;7.82;;;4.75;;
19671;SDS011;9983;51.114;13.788;2023-08-21T16:14:53;5.95;;;5.32;;
19671;SDS011;9983;51.114;13.788;2023-08-21T16:19:53;8.63;;;7.82;;
19671;SDS011;9983;51.114;13.788;2023-08-21T16:24:55;6.18;;;5.68;;
19671;SDS011;9983;51.114;13.788;2023-08-21T16:29:55;6.80;;;6.18;;
19671;SDS011;9983;51.114;13.788;2023-08-21T16:34:56;8.07;;;7.38;;
19671;SDS011;9983;51.114;13.788;2023-08-21T16:39:56;5.90;;;5.30;;
19671;SDS011;9983;51.114;13.788;2023-08-21T16:44:56;5.80;;;5.30;;
19671;SDS011;9983;51.114;13.788;2023-08-21T16:49:56;6.18;;;5.72;;
19671;SDS011;9983;51.114;13.788;2023-08-21T16:54:57;7.15;;;5.95;;
19671;SDS011;9983;51.114;13.788;2023-08-21T16:59:57;7.90;;;7.32;;
19671;SDS011;9983;51.114;13.788;2023-08-21T17:04:57;6.47;;;5.97;;
19671;SDS011;9983;51.114;13.788;2023-08-21T17:09:58;6.15;;;5.40;;
19671;SDS011;9983;51.114;13.788;2023-08-21T17:15:00;11.32;;;7.22;;
19671;SDS011;9983;51.114;13.788;2023-08-21T17:20:01;12.18;;;10.88;;
19671;SDS011;9983;51.114;13.788;2023-08-21T17:25:03;6.82;;;6.22;;
19671;SDS011;9983;51.114;13.788;2023-08-21T17:30:04;6.93;;;6.32;;
19671;SDS011;9983;51.114;13.788;2023-08-21T17:35:05;11.48;;;10.48;;
19671;SDS011;9983;51.114;13.788;2023-08-21T17:40:07;6.53;;;5.70;;
19671;SDS011;9983;51.114;13.788;2023-08-21T17:45:08;8.38;;;5.75;;
19671;SDS011;9983;51.114;13.788;2023-08-21T17:50:08;7.32;;;5.35;;
19671;SDS011;9983;51.114;13.788;2023-08-21T17:55:08;7.77;;;6.10;;
19671;SDS011;9983;51.114;13.788;2023-08-21T18:00:09;6.53;;;5.93;;
19671;SDS011;9983;51.114;13.788;2023-08-21T18:05:10;6.35;;;5.78;;
19671;SDS011;9983;51.114;13.788;2023-08-21T18:10:10;7.13;;;6.20;;
19671;SDS011;9983;51.114;13.788;2023-08-21T18:15:10;7.47;;;5.88;;
19671;SDS011;9983;51.114;13.788;2023-08-21T18:20:11;10.43;;;6.57;;
19671;SDS011;9983;51.114;13.788;2023-08-21T18:25:11;6.47;;;5.88;;
19671;SDS011;9983;51.114;13.788;2023-08-21T18:30:17;19.05;;;15.45;;
19671;SDS011;9983;51.114;13.788;2023-08-21T18:35:18;7.30;;;6.55;;
19671;SDS011;9983;51.114;13.788;2023-08-21T18:40:18;11.15;;;8.35;;
19671;SDS011;9983;51.114;13.788;2023-08-21T18:45:19;7.43;;;6.55;;
19671;SDS011;9983;51.114;13.788;2023-08-21T18:50:19;8.97;;;5.47;;
19671;SDS011;9983;51.114;13.788;2023-08-21T18:55:20;6.85;;;6.15;;
19671;SDS011;9983;51.114;13.788;2023-08-21T19:00:20;7.35;;;6.00;;
19671;SDS011;9983;51.114;13.788;2023-08-21T19:05:21;8.10;;;6.78;;
19671;SDS011;9983;51.114;13.788;2023-08-21T19:10:21;6.75;;;5.85;;
19671;SDS011;9983;51.114;13.788;2023-08-21T19:15:24;6.95;;;6.28;;
19671;SDS011;9983;51.114;13.788;2023-08-21T19:20:25;6.47;;;5.88;;
19671;SDS011;9983;51.114;13.788;2023-08-21T19:25:27;10.80;;;6.18;;
19671;SDS011;9983;51.114;13.788;2023-08-21T19:30:28;7.03;;;6.13;;
19671;SDS011;9983;51.114;13.788;2023-08-21T19:35:35;7.78;;;6.38;;
19671;SDS011;9983;51.114;13.788;2023-08-21T19:40:36;7.53;;;6.20;;
19671;SDS011;9983;51.114;13.788;2023-08-21T19:45:37;10.30;;;5.72;;
19671;SDS011;9983;51.114;13.788;2023-08-21T19:50:39;7.53;;;6.15;;
19671;SDS011;9983;51.114;13.788;2023-08-21T19:55:39;7.90;;;6.35;;
19671;SDS011;9983;51.114;13.788;2023-08-21T20:00:40;9.25;;;7.20;;
19671;SDS011;9983;51.114;13.788;2023-08-21T20:05:41;6.85;;;6.22;;
19671;SDS011;9983;51.114;13.788;2023-08-21T20:10:41;7.40;;;6.70;;
19671;SDS011;9983;51.114;13.788;2023-08-21T20:15:41;6.65;;;6.05;;
19671;SDS011;9983;51.114;13.788;2023-08-21T20:20:46;6.63;;;5.85;;
19671;SDS011;9983;51.114;13.788;2023-08-21T20:25:48;8.25;;;6.80;;
19671;SDS011;9983;51.114;13.788;2023-08-21T20:30:49;9.90;;;7.18;;
19671;SDS011;9983;51.114;13.788;2023-08-21T20:35:50;8.60;;;7.80;;
19671;SDS011;9983;51.114;13.788;2023-08-21T20:40:53;7.55;;;6.85;;
19671;SDS011;9983;51.114;13.788;2023-08-21T20:45:59;7.80;;;6.88;;
19671;SDS011;9983;51.114;13.788;2023-08-21T20:51:00;7.65;;;6.88;;
19671;SDS011;9983;51.114;13.788;2023-08-21T20:56:02;7.07;;;6.47;;
19671;SDS011;9983;51.114;13.788;2023-08-21T21:01:03;10.57;;;6.85;;
19671;SDS011;9983;51.114;13.788;2023-08-21T21:06:03;8.47;;;6.80;;
19671;SDS011;9983;51.114;13.788;2023-08-21T21:11:04;8.13;;;7.07;;
19671;SDS011;9983;51.114;13.788;2023-08-21T21:16:04;8.70;;;7.05;;
19671;SDS011;9983;51.114;13.788;2023-08-21T21:21:04;7.20;;;6.55;;
19671;SDS011;9983;51.114;13.788;2023-08-21T21:26:05;9.48;;;7.63;;
19671;SDS011;9983;51.114;13.788;2023-08-21T21:31:05;7.65;;;6.78;;
19671;SDS011;9983;51.114;13.788;2023-08-21T21:36:05;8.98;;;7.00;;
19671;SDS011;9983;51.114;13.788;2023-08-21T21:41:06;9.30;;;7.28;;
19671;SDS011;9983;51.114;13.788;2023-08-21T21:46:08;8.20;;;7.38;;
19671;SDS011;9983;51.114;13.788;2023-08-21T21:51:09;8.02;;;7.22;;
19671;SDS011;9983;51.114;13.788;2023-08-21T21:56:10;7.75;;;6.95;;
19671;SDS011;9983;51.114;13.788;2023-08-21T22:01:10;8.00;;;7.10;;
19671;SDS011;9983;51.114;13.788;2023-08-21T22:06:10;10.30;;;7.57;;
19671;SDS011;9983;51.114;13.788;2023-08-21T22:11:12;9.23;;;7.05;;
19671;SDS011;9983;51.114;13.788;2023-08-21T22:16:13;8.82;;;8.02;;
19671;SDS011;9983;51.114;13.788;2023-08-21T22:21:13;8.23;;;7.43;;
19671;SDS011;9983;51.114;13.788;2023-08-21T22:26:13;9.95;;;7.53;;
19671;SDS011;9983;51.114;13.788;2023-08-21T22:31:14;8.47;;;7.07;;
19671;SDS011;9983;51.114;13.788;2023-08-21T22:36:14;10.50;;;7.28;;
19671;SDS011;9983;51.114;13.788;2023-08-21T22:41:14;8.48;;;7.32;;
19671;SDS011;9983;51.114;13.788;2023-08-21T22:46:14;8.60;;;7.80;;
19671;SDS011;9983;51.114;13.788;2023-08-21T22:51:15;8.88;;;7.82;;
19671;SDS011;9983;51.114;13.788;2023-08-21T22:56:16;9.32;;;8.32;;
19671;SDS011;9983;51.114;13.788;2023-08-21T23:01:16;8.80;;;7.93;;
19671;SDS011;9983;51.114;13.788;2023-08-21T23:06:16;9.63;;;8.07;;
19671;SDS011;9983;51.114;13.788;2023-08-21T23:11:17;9.82;;;8.82;;
19671;SDS011;9983;51.114;13.788;2023-08-21T23:16:17;9.27;;;8.43;;
19671;SDS011;9983;51.114;13.788;2023-08-21T23:21:18;8.88;;;8.00;;
19671;SDS011;9983;51.114;13.788;2023-08-21T23:26:18;10.70;;;8.27;;
19671;SDS011;9983;51.114;13.788;2023-08-21T23:31:18;10.80;;;9.00;;
19671;SDS011;9983;51.114;13.788;2023-08-21T23:36:18;9.43;;;8.15;;
19671;SDS011;9983;51.114;13.788;2023-08-21T23:41:19;8.80;;;8.00;;
19671;SDS011;9983;51.114;13.788;2023-08-21T23:46:19;8.55;;;7.75;;
19671;SDS011;9983;51.114;13.788;2023-08-21T23:51:20;10.13;;;9.13;;
19671;SDS011;9983;51.114;13.788;2023-08-21T23:56:20;9.32;;;8.52;;
